createdAt,value
2023-05-18T00:01:16.349Z,1.30
2023-05-18T00:03:43.094Z,1.23
2023-05-18T00:06:10.199Z,1.50
2023-05-18T00:08:37.900Z,1.20
2023-05-18T00:11:05.652Z,1.17
2023-05-18T00:13:32.850Z,1.20
2023-05-18T00:15:59.399Z,1.20
2023-05-18T00:18:27.274Z,1.00
2023-05-18T00:20:58.038Z,1.40
2023-05-18T00:23:32.320Z,1.20
2023-05-18T00:26:01.056Z,1.40
2023-05-18T00:28:28.562Z,1.30
2023-05-18T00:30:55.933Z,1.47
2023-05-18T00:33:23.060Z,1.30
2023-05-18T00:35:49.743Z,1.30
2023-05-18T00:38:16.513Z,1.10
2023-05-18T00:40:43.621Z,1.23
2023-05-18T00:43:10.300Z,1.00
2023-05-18T00:45:36.935Z,1.20
2023-05-18T00:48:03.912Z,1.23
2023-05-18T00:50:31.148Z,1.27
2023-05-18T00:52:58.172Z,1.30
2023-05-18T00:55:25.737Z,1.10
2023-05-18T00:57:55.609Z,1.23
2023-05-18T01:00:23.150Z,1.17
2023-05-18T01:02:50.234Z,1.30
2023-05-18T01:05:17.399Z,1.00
2023-05-18T01:07:44.228Z,1.10
2023-05-18T01:10:13.362Z,1.23
2023-05-18T01:13:05.157Z,1.13
2023-05-18T01:15:39.283Z,1.10
2023-05-18T01:18:39.140Z,1.13
2023-05-18T01:21:48.832Z,1.20
2023-05-18T01:24:42.105Z,1.03
2023-05-18T01:27:08.923Z,1.20
2023-05-18T01:29:36.559Z,1.10
2023-05-18T01:32:07.394Z,1.10
2023-05-18T01:34:33.980Z,1.20
2023-05-18T01:37:03.642Z,1.20
2023-05-18T01:39:30.243Z,1.27
2023-05-18T01:42:07.530Z,1.20
2023-05-18T01:44:45.379Z,1.10
2023-05-18T01:47:17.039Z,0.97
2023-05-18T01:50:08.364Z,1.10
2023-05-18T01:53:00.024Z,1.23
2023-05-18T01:55:31.281Z,1.20
2023-05-18T01:58:00.211Z,1.20
2023-05-18T02:00:26.900Z,0.97
2023-05-18T02:02:53.477Z,1.33
2023-05-18T02:05:20.280Z,1.23
2023-05-18T02:07:46.831Z,1.30
2023-05-18T02:10:13.755Z,1.10
2023-05-18T02:12:40.347Z,1.33
2023-05-18T02:15:07.963Z,1.13
2023-05-18T02:17:37.315Z,1.37
2023-05-18T02:20:09.349Z,1.27
2023-05-18T02:22:36.581Z,1.20
2023-05-18T02:25:04.467Z,1.20
2023-05-18T02:27:31.646Z,1.20
2023-05-18T02:29:58.573Z,1.13
2023-05-18T02:32:25.151Z,1.30
2023-05-18T02:34:53.079Z,1.10
2023-05-18T02:37:22.249Z,1.00
2023-05-18T02:39:49.241Z,1.30
2023-05-18T02:42:15.769Z,0.93
2023-05-18T02:44:43.024Z,1.10
2023-05-18T02:47:09.566Z,1.40
2023-05-18T02:49:36.138Z,1.30
2023-05-18T02:52:02.704Z,1.27
2023-05-18T02:54:29.188Z,1.23
2023-05-18T02:56:56.176Z,1.20
2023-05-18T02:59:22.764Z,1.07
2023-05-18T03:01:50.170Z,1.07
2023-05-18T03:04:16.867Z,1.20
2023-05-18T03:06:45.815Z,1.00
2023-05-18T03:09:12.373Z,1.30
2023-05-18T03:11:38.892Z,1.60
2023-05-18T03:14:05.408Z,1.10
2023-05-18T03:16:32.107Z,0.90
2023-05-18T03:19:00.882Z,1.17
2023-05-18T03:21:32.738Z,1.20
2023-05-18T03:24:05.593Z,1.10
2023-05-18T03:26:32.168Z,1.17
2023-05-18T03:28:59.029Z,1.20
2023-05-18T03:31:26.001Z,1.10
2023-05-18T03:33:52.563Z,1.20
2023-05-18T03:36:21.698Z,1.07
2023-05-18T03:38:48.215Z,1.00
2023-05-18T03:41:14.783Z,1.40
2023-05-18T03:43:41.326Z,1.00
2023-05-18T03:46:07.838Z,0.80
2023-05-18T03:48:34.390Z,0.97
2023-05-18T03:51:00.973Z,1.20
2023-05-18T03:53:28.760Z,1.27
2023-05-18T03:55:56.143Z,1.20
2023-05-18T03:58:22.770Z,1.00
2023-05-18T04:00:49.373Z,1.20
2023-05-18T04:03:15.993Z,1.37
2023-05-18T04:05:45.599Z,1.67
2023-05-18T04:08:14.940Z,1.40
2023-05-18T04:10:45.318Z,1.00
2023-05-18T04:13:12.018Z,0.90
2023-05-18T04:15:38.613Z,1.33
2023-05-18T04:18:05.300Z,1.07
2023-05-18T04:20:31.960Z,1.00
2023-05-18T04:22:58.477Z,1.23
2023-05-18T04:25:27.184Z,0.93
2023-05-18T04:27:55.205Z,0.90
2023-05-18T04:30:22.719Z,1.00
2023-05-18T04:32:50.207Z,1.10
2023-05-18T04:35:17.765Z,1.00
2023-05-18T04:37:44.323Z,1.00
2023-05-18T04:40:14.496Z,0.90
2023-05-18T04:42:44.700Z,1.03
2023-05-18T04:45:15.601Z,1.37
2023-05-18T04:47:46.859Z,1.20
2023-05-18T04:50:17.356Z,1.30
2023-05-18T04:52:47.992Z,1.10
2023-05-18T04:55:25.326Z,1.20
2023-05-18T04:57:55.650Z,0.93
2023-05-18T05:00:24.181Z,0.90
2023-05-18T05:02:50.852Z,0.90
2023-05-18T05:05:18.199Z,0.97
2023-05-18T05:07:44.988Z,0.90
2023-05-18T05:10:11.639Z,0.70
2023-05-18T05:12:38.476Z,0.60
2023-05-18T05:15:06.037Z,1.00
2023-05-18T05:17:32.806Z,0.87
2023-05-18T05:19:59.391Z,0.80
2023-05-18T05:22:26.110Z,0.80
2023-05-18T05:24:52.750Z,0.87
2023-05-18T05:27:19.354Z,1.10
2023-05-18T05:29:46.799Z,0.90
2023-05-18T05:32:13.370Z,1.20
2023-05-18T05:34:40.374Z,1.10
2023-05-18T05:37:07.104Z,1.10
2023-05-18T05:39:33.776Z,1.20
2023-05-18T05:42:00.321Z,1.03
2023-05-18T05:44:26.840Z,1.20
2023-05-18T05:46:53.385Z,1.30
2023-05-18T05:49:19.919Z,0.83
2023-05-18T05:51:46.484Z,1.07
2023-05-18T05:54:13.030Z,1.10
2023-05-18T05:56:39.690Z,0.70
2023-05-18T05:59:10.925Z,1.02
2023-05-18T06:01:37.488Z,0.90
2023-05-18T06:04:05.764Z,0.67
2023-05-18T06:06:32.556Z,0.90
2023-05-18T06:08:59.145Z,1.00
2023-05-18T06:11:26.035Z,0.93
2023-05-18T06:13:52.590Z,0.80
2023-05-18T06:16:19.159Z,1.00
2023-05-18T06:18:45.748Z,1.00
2023-05-18T06:21:12.370Z,1.00
2023-05-18T06:23:41.672Z,1.07
2023-05-18T06:26:08.559Z,1.98
2023-05-18T06:28:35.087Z,2.97
2023-05-18T06:31:01.905Z,4.40
2023-05-18T06:33:28.471Z,6.63
2023-05-18T06:35:55.354Z,14.27
2023-05-18T06:38:21.942Z,11.70
2023-05-18T06:40:49.173Z,5.50
2023-05-18T06:43:15.764Z,2.60
2023-05-18T06:45:42.400Z,2.37
2023-05-18T06:48:08.977Z,2.10
2023-05-18T06:50:35.563Z,1.60
2023-05-18T06:53:02.345Z,3.12
2023-05-18T06:55:29.077Z,1.60
2023-05-18T06:57:57.562Z,12.15
2023-05-18T07:00:24.468Z,4.12
2023-05-18T07:02:51.036Z,2.50
2023-05-18T07:05:17.697Z,1.50
2023-05-18T07:07:44.270Z,1.00
2023-05-18T07:10:10.907Z,1.40
2023-05-18T07:12:37.446Z,0.95
2023-05-18T07:15:04.953Z,0.98
2023-05-18T07:17:31.536Z,1.27
2023-05-18T07:19:58.092Z,1.30
2023-05-18T07:22:24.670Z,1.12
2023-05-18T07:24:51.204Z,1.10
2023-05-18T07:27:17.736Z,0.90
2023-05-18T07:29:44.296Z,1.10
2023-05-18T07:32:10.816Z,0.95
2023-05-18T07:34:37.716Z,0.82
2023-05-18T07:37:04.507Z,1.08
2023-05-18T07:39:31.048Z,1.05
2023-05-18T07:41:59.104Z,1.20
2023-05-18T07:44:25.674Z,1.08
2023-05-18T07:46:52.364Z,1.12
2023-05-18T07:49:19.000Z,1.30
2023-05-18T07:51:45.524Z,1.05
2023-05-18T07:54:12.133Z,1.05
2023-05-18T07:56:45.124Z,0.97
2023-05-18T07:59:11.747Z,1.15
2023-05-18T08:01:39.157Z,0.93
2023-05-18T08:04:05.985Z,1.08
2023-05-18T08:06:32.736Z,1.15
2023-05-18T08:08:59.280Z,1.12
2023-05-18T08:11:25.820Z,1.02
2023-05-18T08:13:52.354Z,1.20
2023-05-18T08:16:18.914Z,1.00
2023-05-18T08:18:45.529Z,1.05
2023-05-18T08:21:12.104Z,1.15
2023-05-18T08:23:39.150Z,0.98
2023-05-18T08:26:07.396Z,1.20
2023-05-18T08:28:34.238Z,1.00
2023-05-18T08:31:00.760Z,1.20
2023-05-18T08:33:27.307Z,1.20
2023-05-18T08:35:53.888Z,1.15
2023-05-18T08:38:20.530Z,1.10
2023-05-18T08:41:01.797Z,1.25
2023-05-18T08:43:32.636Z,1.17
2023-05-18T08:46:27.868Z,1.17
2023-05-18T08:49:18.068Z,1.16
2023-05-18T08:51:56.545Z,1.33
2023-05-18T08:54:24.436Z,1.20
2023-05-18T08:56:52.953Z,0.82
2023-05-18T08:59:25.952Z,1.20
2023-05-18T09:01:54.388Z,1.00
2023-05-18T09:04:21.909Z,0.95
2023-05-18T09:06:50.804Z,0.93
2023-05-18T09:09:18.386Z,0.95
2023-05-18T09:11:47.560Z,1.10
2023-05-18T09:14:14.157Z,1.00
2023-05-18T09:16:40.838Z,0.93
2023-05-18T09:19:07.549Z,1.10
2023-05-18T09:21:34.322Z,0.90
2023-05-18T09:24:00.972Z,1.00
2023-05-18T09:26:27.523Z,1.12
2023-05-18T09:28:54.367Z,1.08
2023-05-18T09:31:23.772Z,1.17
2023-05-18T09:33:50.975Z,0.90
2023-05-18T09:36:24.015Z,1.23
2023-05-18T09:38:52.555Z,1.17
2023-05-18T09:41:19.255Z,1.10
2023-05-18T09:43:48.210Z,1.10
2023-05-18T09:46:15.018Z,1.00
2023-05-18T09:48:46.476Z,1.00
2023-05-18T09:51:15.803Z,1.08
2023-05-18T09:54:15.521Z,1.23
2023-05-18T09:56:52.281Z,1.23
2023-05-18T09:59:25.165Z,1.17
2023-05-18T10:02:08.063Z,1.20
2023-05-18T10:04:43.084Z,0.85
2023-05-18T10:07:15.389Z,1.25
2023-05-18T10:09:45.847Z,1.60
2023-05-18T10:12:20.518Z,1.10
2023-05-18T10:14:49.101Z,1.20
2023-05-18T10:17:17.188Z,1.10
2023-05-18T10:19:46.206Z,0.93
2023-05-18T10:22:20.203Z,1.20
2023-05-18T10:24:51.968Z,1.30
2023-05-18T10:27:26.769Z,1.10
2023-05-18T10:29:57.191Z,1.20
2023-05-18T10:32:25.587Z,0.70
2023-05-18T10:34:56.619Z,1.33
2023-05-18T10:37:25.835Z,1.05
2023-05-18T10:39:55.215Z,1.10
2023-05-18T10:42:24.851Z,1.10
2023-05-18T10:44:53.608Z,1.10
2023-05-18T10:47:21.333Z,1.05
2023-05-18T10:49:49.310Z,0.82
2023-05-18T10:52:20.865Z,0.95
2023-05-18T10:54:47.824Z,0.95
2023-05-18T10:57:19.268Z,1.37
2023-05-18T10:59:48.396Z,1.05
2023-05-18T11:02:18.560Z,0.98
2023-05-18T11:04:47.199Z,1.10
2023-05-18T11:07:14.895Z,0.80
2023-05-18T11:09:43.805Z,1.40
2023-05-18T11:12:17.085Z,1.10
2023-05-18T11:14:56.754Z,1.03
2023-05-18T11:17:29.297Z,0.88
2023-05-18T11:20:56.277Z,1.08
2023-05-18T11:23:23.977Z,0.82
2023-05-18T11:25:53.599Z,1.10
2023-05-18T11:28:22.500Z,0.88
2023-05-18T11:30:50.724Z,0.80
2023-05-18T11:33:32.052Z,0.93
2023-05-18T11:36:12.910Z,0.90
2023-05-18T11:39:04.013Z,0.90
2023-05-18T11:41:46.072Z,0.85
2023-05-18T11:44:22.733Z,0.90
2023-05-18T11:47:04.191Z,0.70
2023-05-18T11:49:50.206Z,1.25
2023-05-18T11:52:24.557Z,0.90
2023-05-18T11:55:00.945Z,1.00
2023-05-18T11:57:40.114Z,0.98
2023-05-18T12:00:11.095Z,0.80
2023-05-18T12:02:38.463Z,1.00
2023-05-18T12:05:09.284Z,1.00
2023-05-18T12:07:38.565Z,0.80
2023-05-18T12:10:11.696Z,0.90
2023-05-18T12:12:39.290Z,1.00
2023-05-18T12:15:08.935Z,0.80
2023-05-18T12:17:47.197Z,0.90
2023-05-18T12:20:20.286Z,0.95
2023-05-18T12:22:49.595Z,0.90
2023-05-18T12:25:16.219Z,0.85
2023-05-18T12:27:45.411Z,0.82
2023-05-18T12:30:33.685Z,0.90
2023-05-18T12:33:04.453Z,0.90
2023-05-18T12:35:32.679Z,0.75
2023-05-18T12:38:00.701Z,1.00
2023-05-18T12:40:45.642Z,0.93
2023-05-18T12:43:12.540Z,1.05
2023-05-18T12:45:40.215Z,1.00
2023-05-18T12:48:12.324Z,1.10
2023-05-18T12:50:51.254Z,1.10
2023-05-18T12:53:18.425Z,0.80
2023-05-18T12:55:45.247Z,0.98
2023-05-18T12:58:15.927Z,0.90
2023-05-18T13:00:47.415Z,1.00
2023-05-18T13:03:21.088Z,0.80
2023-05-18T13:06:07.755Z,0.90
2023-05-18T13:08:36.305Z,1.00
2023-05-18T13:11:13.422Z,0.93
2023-05-18T13:14:02.550Z,1.10
2023-05-18T13:16:29.491Z,1.10
2023-05-18T13:19:00.852Z,1.27
2023-05-18T13:21:28.198Z,0.93
2023-05-18T13:23:54.814Z,1.00
2023-05-18T13:26:23.284Z,1.10
2023-05-18T13:28:54.374Z,1.20
2023-05-18T13:31:21.759Z,1.05
2023-05-18T13:33:49.991Z,1.10
2023-05-18T13:36:18.011Z,1.17
2023-05-18T13:38:44.591Z,1.08
2023-05-18T13:41:14.172Z,1.00
2023-05-18T13:43:41.901Z,1.15
2023-05-18T13:46:08.515Z,1.08
2023-05-18T13:48:35.046Z,1.20
2023-05-18T13:51:01.661Z,1.10
2023-05-18T13:53:28.356Z,1.10
2023-05-18T13:55:55.035Z,0.95
2023-05-18T13:58:23.067Z,1.02
2023-05-18T14:00:49.631Z,1.12
2023-05-18T14:03:16.787Z,1.10
2023-05-18T14:05:43.360Z,1.30
2023-05-18T14:08:09.907Z,1.00
2023-05-18T14:10:36.520Z,1.25
2023-05-18T14:13:03.062Z,1.37
2023-05-18T14:15:29.570Z,1.23
2023-05-18T14:17:56.237Z,1.20
2023-05-18T14:20:22.914Z,1.40
2023-05-18T14:22:49.503Z,1.42
2023-05-18T14:25:16.371Z,1.80
2023-05-18T14:27:42.902Z,1.55
2023-05-18T14:30:09.737Z,1.45
2023-05-18T14:32:36.554Z,1.80
2023-05-18T14:35:03.566Z,1.70
2023-05-18T14:37:30.196Z,1.62
2023-05-18T14:39:56.727Z,1.50
2023-05-18T14:42:23.261Z,1.83
2023-05-18T14:44:49.802Z,1.92
2023-05-18T14:47:17.188Z,1.95
2023-05-18T14:49:43.706Z,1.92
2023-05-18T14:52:10.563Z,1.85
2023-05-18T14:54:37.082Z,1.83
2023-05-18T14:57:03.912Z,1.60
2023-05-18T14:59:30.460Z,2.28
2023-05-18T15:01:57.037Z,2.33
2023-05-18T15:04:24.956Z,2.25
2023-05-18T15:06:51.654Z,2.20
2023-05-18T15:09:18.205Z,2.05
2023-05-18T15:11:45.755Z,2.28
2023-05-18T15:14:12.269Z,2.20
2023-05-18T15:16:39.006Z,2.50
2023-05-18T15:19:05.789Z,2.37
2023-05-18T15:21:32.399Z,2.62
2023-05-18T15:23:59.012Z,2.92
2023-05-18T15:26:25.962Z,3.03
2023-05-18T15:28:52.510Z,3.20
2023-05-18T15:31:19.067Z,3.22
2023-05-18T15:33:45.720Z,2.67
2023-05-18T15:36:12.278Z,3.08
2023-05-18T15:38:38.837Z,3.05
2023-05-18T15:41:05.396Z,4.07
2023-05-18T15:43:32.924Z,3.37
2023-05-18T15:46:00.012Z,3.30
2023-05-18T15:48:26.570Z,2.92
2023-05-18T15:50:53.099Z,3.35
2023-05-18T15:53:20.015Z,3.37
2023-05-18T15:55:48.456Z,3.40
2023-05-18T15:58:15.440Z,3.90
2023-05-18T16:00:41.983Z,3.65
2023-05-18T16:03:08.849Z,4.18
2023-05-18T16:05:35.539Z,3.72
2023-05-18T16:08:02.123Z,4.00
2023-05-18T16:10:28.665Z,4.03
2023-05-18T16:12:55.273Z,5.47
2023-05-18T16:15:23.914Z,3.85
2023-05-18T16:17:50.487Z,4.25
2023-05-18T16:20:17.767Z,4.22
2023-05-18T16:22:46.028Z,3.83
2023-05-18T16:25:12.552Z,3.92
2023-05-18T16:27:39.079Z,4.12
2023-05-18T16:30:07.032Z,4.70
2023-05-18T16:32:33.701Z,4.15
2023-05-18T16:35:00.379Z,4.22
2023-05-18T16:37:27.075Z,4.28
2023-05-18T16:39:53.654Z,3.92
2023-05-18T16:42:21.600Z,4.03
2023-05-18T16:44:48.138Z,4.85
2023-05-18T16:47:14.672Z,4.28
2023-05-18T16:49:44.495Z,4.30
2023-05-18T16:52:11.258Z,4.62
2023-05-18T16:54:37.811Z,4.40
2023-05-18T16:57:05.452Z,4.25
2023-05-18T16:59:33.582Z,5.10
2023-05-18T17:02:00.709Z,4.07
2023-05-18T17:04:27.270Z,4.62
2023-05-18T17:06:53.807Z,4.22
2023-05-18T17:09:20.353Z,4.10
2023-05-18T17:11:47.684Z,4.12
2023-05-18T17:14:14.422Z,4.80
2023-05-18T17:16:41.051Z,4.75
2023-05-18T17:19:07.988Z,4.40
2023-05-18T17:21:34.722Z,4.40
2023-05-18T17:24:01.272Z,4.50
2023-05-18T17:26:29.845Z,4.50
2023-05-18T17:28:56.665Z,4.47
2023-05-18T17:31:23.276Z,4.47
2023-05-18T17:33:49.918Z,4.28
2023-05-18T17:36:17.422Z,4.20
2023-05-18T17:38:47.038Z,4.17
2023-05-18T17:41:13.694Z,4.20
2023-05-18T17:43:40.294Z,4.35
2023-05-18T17:46:06.907Z,4.15
2023-05-18T17:48:33.478Z,4.53
2023-05-18T17:51:00.040Z,4.28
2023-05-18T17:53:26.598Z,3.93
2023-05-18T17:55:53.136Z,4.53
2023-05-18T17:58:19.672Z,4.57
2023-05-18T18:00:46.244Z,4.00
2023-05-18T18:03:13.241Z,4.53
2023-05-18T18:05:39.947Z,4.20
2023-05-18T18:08:06.492Z,4.30
2023-05-18T18:10:33.443Z,5.07
2023-05-18T18:13:00.153Z,4.28
2023-05-18T18:15:28.123Z,4.40
2023-05-18T18:17:55.899Z,4.43
2023-05-18T18:20:22.724Z,4.68
2023-05-18T18:22:49.281Z,4.45
2023-05-18T18:25:15.863Z,4.75
2023-05-18T18:27:42.468Z,4.80
2023-05-18T18:30:10.027Z,4.50
2023-05-18T18:32:36.584Z,4.60
2023-05-18T18:35:03.616Z,4.75
2023-05-18T18:37:30.232Z,5.05
2023-05-18T18:39:56.766Z,4.80
2023-05-18T18:42:23.430Z,4.70
2023-05-18T18:44:52.093Z,4.93
2023-05-18T18:47:18.726Z,4.67
2023-05-18T18:49:45.278Z,4.73
2023-05-18T18:52:13.638Z,4.93
2023-05-18T18:54:40.508Z,4.70
2023-05-18T18:57:11.277Z,4.67
2023-05-18T18:59:38.393Z,5.55
2023-05-18T19:02:05.102Z,5.10
2023-05-18T19:04:31.810Z,5.37
2023-05-18T19:07:01.983Z,5.40
2023-05-18T19:09:31.939Z,5.35
2023-05-18T19:11:58.785Z,5.60
2023-05-18T19:14:25.334Z,4.90
2023-05-18T19:16:51.958Z,5.32
2023-05-18T19:19:18.524Z,5.33
2023-05-18T19:21:46.163Z,5.32
2023-05-18T19:24:12.799Z,5.25
2023-05-18T19:26:39.329Z,5.40
2023-05-18T19:29:05.861Z,5.50
2023-05-18T19:31:33.718Z,5.90
2023-05-18T19:34:00.519Z,5.47
2023-05-18T19:36:27.547Z,5.40
2023-05-18T19:38:55.090Z,5.07
2023-05-18T19:41:23.137Z,5.20
2023-05-18T19:43:51.127Z,6.00
2023-05-18T19:46:19.118Z,5.78
2023-05-18T19:48:45.967Z,5.70
2023-05-18T19:51:12.513Z,5.47
2023-05-18T19:53:42.684Z,5.40
2023-05-18T19:56:09.253Z,5.43
2023-05-18T19:58:35.839Z,5.37
2023-05-18T20:01:02.544Z,6.15
2023-05-18T20:03:29.165Z,5.18
2023-05-18T20:05:56.016Z,5.53
2023-05-18T20:08:22.586Z,5.80
2023-05-18T20:10:49.250Z,5.70
2023-05-18T20:13:15.808Z,5.50
2023-05-18T20:15:42.951Z,5.57
2023-05-18T20:18:09.513Z,5.77
2023-05-18T20:20:36.929Z,5.50
2023-05-18T20:23:05.896Z,5.73
2023-05-18T20:25:35.611Z,5.30
2023-05-18T20:28:06.557Z,5.47
2023-05-18T20:30:33.993Z,5.90
2023-05-18T20:33:03.088Z,5.80
2023-05-18T20:35:29.660Z,6.40
2023-05-18T20:37:58.765Z,5.80
2023-05-18T20:40:29.909Z,5.87
2023-05-18T20:42:57.789Z,6.10
2023-05-18T20:45:25.196Z,5.70
2023-05-18T20:47:52.274Z,5.57
2023-05-18T20:50:20.475Z,6.43
2023-05-18T20:52:47.319Z,5.53
2023-05-18T20:55:14.056Z,5.70
2023-05-18T20:57:44.019Z,5.68
2023-05-18T21:00:12.896Z,5.73
2023-05-18T21:02:45.267Z,6.20
2023-05-18T21:05:12.690Z,5.53
2023-05-18T21:07:39.705Z,5.97
2023-05-18T21:10:10.832Z,5.87
2023-05-18T21:12:37.968Z,5.60
2023-05-18T21:15:05.423Z,5.67
2023-05-18T21:17:32.127Z,5.93
2023-05-18T21:19:58.886Z,6.07
2023-05-18T21:22:25.454Z,5.60
2023-05-18T21:24:52.044Z,5.40
2023-05-18T21:27:18.652Z,5.57
2023-05-18T21:29:45.206Z,5.47
2023-05-18T21:32:11.985Z,5.60
2023-05-18T21:34:39.609Z,6.07
2023-05-18T21:37:07.742Z,5.80
2023-05-18T21:39:34.367Z,5.97
2023-05-18T21:42:01.825Z,5.47
2023-05-18T21:44:28.405Z,6.00
2023-05-18T21:46:57.109Z,6.17
2023-05-18T21:49:23.619Z,5.70
2023-05-18T21:51:50.318Z,6.50
2023-05-18T21:54:16.828Z,6.30
2023-05-18T21:56:43.381Z,5.50
2023-05-18T21:59:09.930Z,5.50
2023-05-18T22:01:36.555Z,6.37
2023-05-18T22:04:03.269Z,6.17
2023-05-18T22:06:30.406Z,6.57
2023-05-18T22:08:56.950Z,6.13
2023-05-18T22:11:23.821Z,5.87
2023-05-18T22:13:50.801Z,5.90
2023-05-18T22:16:17.396Z,6.33
2023-05-18T22:18:43.996Z,6.33
2023-05-18T22:21:10.571Z,6.07
2023-05-18T22:23:38.418Z,6.20
2023-05-18T22:26:05.082Z,5.50
2023-05-18T22:28:31.590Z,5.80
2023-05-18T22:30:58.105Z,6.23
2023-05-18T22:33:24.846Z,6.47
2023-05-18T22:35:51.419Z,6.07
2023-05-18T22:38:18.001Z,5.93
2023-05-18T22:40:44.927Z,6.17
2023-05-18T22:43:11.660Z,5.97
2023-05-18T22:45:38.236Z,5.73
2023-05-18T22:48:05.120Z,6.27
2023-05-18T22:50:32.044Z,5.80
2023-05-18T22:52:58.735Z,5.67
2023-05-18T22:55:25.286Z,5.73
2023-05-18T22:57:51.823Z,5.80
2023-05-18T23:00:18.503Z,6.20
2023-05-18T23:02:45.629Z,5.07
2023-05-18T23:05:13.765Z,6.03
2023-05-18T23:07:41.064Z,5.53
2023-05-18T23:10:13.270Z,6.07
2023-05-18T23:12:40.842Z,5.90
2023-05-18T23:15:08.450Z,6.00
2023-05-18T23:17:38.157Z,6.10
2023-05-18T23:20:09.714Z,6.00
2023-05-18T23:22:36.267Z,6.20
2023-05-18T23:25:07.736Z,6.07
2023-05-18T23:27:34.893Z,6.53
2023-05-18T23:30:01.420Z,6.50
2023-05-18T23:32:28.801Z,6.30
2023-05-18T23:34:57.046Z,5.80
2023-05-18T23:37:25.366Z,5.70
2023-05-18T23:39:52.674Z,6.03
2023-05-18T23:42:20.498Z,6.03
2023-05-18T23:44:48.147Z,5.87
2023-05-18T23:47:15.729Z,5.93
2023-05-18T23:49:44.200Z,6.37
2023-05-18T23:52:12.844Z,5.93
2023-05-18T23:54:40.455Z,5.97
2023-05-18T23:57:08.142Z,5.47
2023-05-18T23:59:35.782Z,6.00
